Time;durP1;ratioP1;P1;durP2;ratioP2;P2;SDS_P1;SDS_P2;PMS_P1;PMS_P2;Temp;Humidity;BMP_temperature;BMP_pressure;BME280_temperature;BME280_humidity;BME280_pressure;Samples;Min_cycle;Max_cycle;Signal;HPM_P1;HPM_P2
2023/10/08 00:00:55;;;;;;;3.00;0.30;;;;;;;13.93;70.44;99091.04;88485;276;135665;-81
2023/10/08 00:02:57;;;;;;;3.40;0.60;;;;;;;13.91;67.70;99087.19;88601;276;24457;-77
2023/10/08 00:05:00;;;;;;;2.20;0.20;;;;;;;13.88;67.04;99094.27;88375;282;136002;-77
2023/10/08 00:07:07;;;;;;;5.10;0.40;;;;;;;13.84;66.72;99089.81;88556;280;22551;-81
2023/10/08 00:09:08;;;;;;;1.50;0.20;;;;;;;13.78;66.70;99099.98;88474;283;135661;-81
2023/10/08 00:11:15;;;;;;;3.90;0.30;;;;;;;13.73;66.77;99106.65;88770;276;22965;-82
2023/10/08 00:13:17;;;;;;;1.30;0.10;;;;;;;13.70;67.26;99103.73;89500;283;135719;-78
2023/10/08 00:15:19;;;;;;;1.90;0.50;;;;;;;13.64;66.38;99106.89;89166;282;22876;-77
2023/10/08 00:17:21;;;;;;;0.40;0.10;;;;;;;13.59;66.36;99114.77;88763;280;137161;-73
2023/10/08 00:19:24;;;;;;;1.00;0.40;;;;;;;13.47;66.26;99099.59;88627;283;22615;-76
2023/10/08 00:21:26;;;;;;;2.40;0.40;;;;;;;13.45;66.26;99111.02;88557;275;136303;-71
2023/10/08 00:23:30;;;;;;;5.30;0.30;;;;;;;13.40;65.15;99117.91;88680;282;22628;-76
2023/10/08 00:25:34;;;;;;;1.00;0.10;;;;;;;13.33;64.60;99116.11;88528;276;137385;-80
2023/10/08 00:27:38;;;;;;;4.90;0.20;;;;;;;13.21;64.25;99118.09;88646;280;22537;-81
2023/10/08 00:29:43;;;;;;;1.10;0.20;;;;;;;13.04;64.28;99113.83;88480;278;136063;-80
2023/10/08 00:31:45;;;;;;;1.20;0.20;;;;;;;13.00;64.35;99131.34;88473;278;25109;-79
2023/10/08 00:33:48;;;;;;;0.70;0.10;;;;;;;12.93;65.44;99134.86;88458;282;137192;-78
2023/10/08 00:35:51;;;;;;;1.10;0.20;;;;;;;12.84;67.19;99134.40;88642;281;22654;-80
2023/10/08 00:37:53;;;;;;;1.20;0.20;;;;;;;12.76;69.38;99140.05;88581;273;136863;-78
2023/10/08 00:39:56;;;;;;;1.40;0.20;;;;;;;12.67;70.08;99130.54;88407;282;24049;-77
2023/10/08 00:41:58;;;;;;;1.50;0.20;;;;;;;12.57;68.98;99147.02;88245;279;135984;-77
2023/10/08 00:44:05;;;;;;;2.10;0.40;;;;;;;12.49;70.18;99150.15;88466;276;26251;-78
2023/10/08 00:46:21;;;;;;;1.90;0.30;;;;;;;12.41;71.46;99141.03;88439;282;24173;-76
2023/10/08 00:48:29;;;;;;;1.10;0.10;;;;;;;12.29;72.24;99137.21;88540;282;137060;-79
2023/10/08 00:50:42;;;;;;;1.70;1.00;;;;;;;12.15;71.15;99138.34;88703;278;24212;-79
2023/10/08 00:52:58;;;;;;;1.40;0.20;;;;;;;12.02;71.81;99146.73;88560;284;136859;-79
2023/10/08 00:57:04;;;;;;;1.00;0.20;;;;;;;11.85;72.94;99148.80;88395;275;135895;-78
2023/10/08 00:59:06;;;;;;;1.70;0.20;;;;;;;11.78;74.35;99145.29;88850;280;22537;-74
2023/10/08 01:01:10;;;;;;;2.70;0.30;;;;;;;11.70;74.34;99151.98;88815;280;136804;-74
2023/10/08 01:03:17;;;;;;;0.80;0.20;;;;;;;11.65;75.04;99160.41;89579;276;22528;-77
2023/10/08 01:05:41;;;;;;;3.10;0.20;;;;;;;11.59;77.22;99163.45;88706;282;136247;-75
2023/10/08 01:07:48;;;;;;;1.90;0.20;;;;;;;11.45;77.29;99154.27;88431;280;25085;-79
2023/10/08 01:09:51;;;;;;;2.60;0.70;;;;;;;11.35;77.95;99148.58;88643;282;137095;-81
2023/10/08 01:12:33;;;;;;;1.20;0.20;;;;;;;11.25;78.01;99149.54;88432;283;25083;-77
2023/10/08 01:14:36;;;;;;;1.70;0.30;;;;;;;11.14;79.60;99144.06;88544;282;25134;-78
2023/10/08 01:16:41;;;;;;;2.50;0.10;;;;;;;11.04;80.49;99141.06;88526;275;135869;-77
2023/10/08 01:18:47;;;;;;;1.20;0.30;;;;;;;10.93;81.73;99136.56;88494;284;22530;-74
2023/10/08 01:20:52;;;;;;;2.20;0.20;;;;;;;10.83;82.00;99140.10;88455;279;137052;-76
2023/10/08 01:22:57;;;;;;;0.60;0.20;;;;;;;10.75;81.91;99145.46;88501;282;24456;-74
2023/10/08 01:25:01;;;;;;;1.70;0.10;;;;;;;10.69;82.16;99155.80;88554;276;135800;-74
2023/10/08 01:27:05;;;;;;;1.90;0.10;;;;;;;10.64;82.41;99154.54;88405;284;22529;-76
2023/10/08 01:29:18;;;;;;;0.40;0.40;;;;;;;10.61;82.55;99150.86;88480;283;135866;-77
2023/10/08 01:31:21;;;;;;;0.70;0.20;;;;;;;10.57;82.95;99149.84;88364;276;22608;-70
2023/10/08 01:33:27;;;;;;;1.90;0.20;;;;;;;10.52;82.49;99139.10;88278;284;136244;-69
2023/10/08 01:35:31;;;;;;;1.40;0.20;;;;;;;10.56;82.15;99152.06;88721;280;22780;-68
2023/10/08 01:37:34;;;;;;;1.20;0.20;;;;;;;10.56;82.07;99150.75;88352;274;136196;-72
2023/10/08 01:39:42;;;;;;;1.80;0.20;;;;;;;10.55;81.31;99151.38;88522;282;25083;-68
2023/10/08 01:41:46;;;;;;;2.80;0.80;;;;;;;10.55;81.72;99148.83;88327;279;137539;-72
2023/10/08 01:43:50;;;;;;;1.00;0.40;;;;;;;10.56;81.45;99153.29;89014;284;23991;-73
2023/10/08 01:45:52;;;;;;;2.40;0.80;;;;;;;10.58;80.93;99156.27;88389;282;135987;-75
2023/10/08 01:47:54;;;;;;;1.40;0.30;;;;;;;10.60;80.63;99156.48;88711;280;22557;-73
2023/10/08 01:50:05;;;;;;;1.90;0.80;;;;;;;10.62;80.57;99149.71;88650;283;136455;-74
2023/10/08 01:52:17;;;;;;;1.40;0.30;;;;;;;10.62;79.25;99141.34;88802;279;137372;-73
2023/10/08 01:54:21;;;;;;;2.70;0.30;;;;;;;10.63;78.60;99137.77;88855;280;25173;-76
2023/10/08 01:56:24;;;;;;;4.20;1.00;;;;;;;10.64;79.19;99140.69;88747;282;137384;-74
2023/10/08 01:58:25;;;;;;;1.20;0.40;;;;;;;10.65;78.83;99139.31;88676;276;22545;-75
2023/10/08 02:00:27;;;;;;;4.10;0.40;;;;;;;10.67;78.87;99147.73;88640;280;137175;-73
2023/10/08 02:02:29;;;;;;;3.90;0.30;;;;;;;10.68;78.02;99144.98;88816;275;24030;-74
2023/10/08 02:04:33;;;;;;;2.50;0.50;;;;;;;10.66;78.19;99140.91;88652;275;136078;-74
2023/10/08 02:06:35;;;;;;;2.20;1.00;;;;;;;10.66;78.63;99147.18;88928;275;25035;-74
2023/10/08 02:08:37;;;;;;;2.40;0.50;;;;;;;10.67;78.19;99152.44;88559;275;135831;-74
2023/10/08 02:10:40;;;;;;;2.80;0.40;;;;;;;10.66;78.46;99155.62;88809;282;24077;-74
2023/10/08 02:12:42;;;;;;;1.40;0.30;;;;;;;10.68;78.11;99150.81;88665;282;135848;-75
2023/10/08 02:14:44;;;;;;;1.40;0.60;;;;;;;10.69;78.47;99150.48;88778;274;22545;-73
2023/10/08 02:16:47;;;;;;;2.20;0.60;;;;;;;10.69;78.57;99145.20;88823;274;137475;-73
2023/10/08 02:18:51;;;;;;;4.50;1.30;;;;;;;10.69;78.42;99143.88;88818;280;25084;-75
2023/10/08 02:20:53;;;;;;;0.90;0.30;;;;;;;10.71;78.48;99140.20;88626;280;135812;-74
2023/10/08 02:22:55;;;;;;;1.00;0.40;;;;;;;10.73;78.64;99142.38;88667;284;22715;-74
2023/10/08 02:25:01;;;;;;;2.90;0.40;;;;;;;10.72;78.08;99139.42;88719;282;136049;-73
2023/10/08 02:27:03;;;;;;;5.40;0.70;;;;;;;10.70;77.65;99146.05;88817;279;22536;-74
2023/10/08 02:29:10;;;;;;;6.00;0.70;;;;;;;10.69;77.85;99146.29;88614;276;136421;-75
2023/10/08 02:31:13;;;;;;;1.60;0.50;;;;;;;10.68;78.42;99141.59;89054;282;23327;-76
2023/10/08 02:33:15;;;;;;;1.90;0.60;;;;;;;10.67;79.32;99143.32;88615;279;137099;-72
2023/10/08 02:35:18;;;;;;;2.20;0.30;;;;;;;10.67;79.30;99142.75;88703;276;22571;-73
2023/10/08 02:37:20;;;;;;;1.30;0.20;;;;;;;10.68;79.34;99141.54;88676;276;137706;-74
2023/10/08 02:39:25;;;;;;;0.80;0.40;;;;;;;10.69;80.22;99141.48;88699;282;25084;-73
2023/10/08 02:41:28;;;;;;;3.40;0.30;;;;;;;10.68;80.43;99143.67;88595;279;136127;-73
2023/10/08 02:43:30;;;;;;;1.80;0.70;;;;;;;10.66;80.45;99146.98;88715;276;22913;-73
2023/10/08 02:45:32;;;;;;;0.70;0.20;;;;;;;10.66;80.82;99150.63;88667;279;135866;-75
2023/10/08 02:47:33;;;;;;;2.60;0.50;;;;;;;10.66;80.85;99154.55;88896;279;22537;-72
2023/10/08 02:49:36;;;;;;;1.00;0.30;;;;;;;10.64;80.76;99148.55;88251;276;135601;-71
2023/10/08 02:51:44;;;;;;;4.70;0.80;;;;;;;10.66;81.01;99160.86;88450;282;24042;-75
2023/10/08 02:53:46;;;;;;;5.60;0.50;;;;;;;10.64;81.22;99169.09;88682;284;136987;-73
2023/10/08 02:55:49;;;;;;;4.30;0.40;;;;;;;10.62;81.21;99168.73;88806;284;23708;-74
2023/10/08 02:57:51;;;;;;;1.30;0.30;;;;;;;10.61;81.17;99169.36;88697;283;136619;-73
2023/10/08 02:59:54;;;;;;;0.80;0.40;;;;;;;10.61;80.29;99168.87;88641;276;22554;-72
2023/10/08 03:01:56;;;;;;;2.00;0.30;;;;;;;10.62;79.61;99171.77;88816;283;138836;-73
2023/10/08 03:04:09;;;;;;;1.50;0.30;;;;;;;10.63;78.49;99177.66;88809;279;22544;-73
2023/10/08 03:06:14;;;;;;;1.10;0.20;;;;;;;10.65;77.39;99173.92;88895;276;22591;-72
2023/10/08 03:08:21;;;;;;;0.50;0.10;;;;;;;10.67;74.54;99173.09;88707;275;137089;-72
2023/10/08 03:10:32;;;;;;;2.60;0.20;;;;;;;10.68;72.75;99169.21;88913;277;23981;-74
2023/10/08 03:12:34;;;;;;;1.50;0.20;;;;;;;10.70;72.23;99173.39;88678;276;135782;-75
2023/10/08 03:14:48;;;;;;;4.70;0.20;;;;;;;10.74;69.88;99179.09;88798;282;22558;-74
2023/10/08 03:16:52;;;;;;;0.70;0.10;;;;;;;10.76;68.26;99180.81;88468;275;136141;-73
2023/10/08 03:18:57;;;;;;;2.80;0.30;;;;;;;10.77;66.54;99183.70;88943;282;22531;-73
2023/10/08 03:21:03;;;;;;;1.10;0.10;;;;;;;10.78;65.98;99186.36;88783;279;135777;-75
2023/10/08 03:23:25;;;;;;;1.00;0.10;;;;;;;10.78;65.97;99197.19;88956;274;24042;-75
2023/10/08 03:25:28;;;;;;;2.20;0.10;;;;;;;10.78;65.23;99195.27;88938;274;135947;-75
2023/10/08 03:27:29;;;;;;;3.80;0.10;;;;;;;10.66;65.88;99184.48;89136;282;22571;-74
2023/10/08 03:29:41;;;;;;;1.70;0.10;;;;;;;10.77;66.75;99202.90;89231;279;136062;-71
2023/10/08 03:33:51;;;;;;;1.50;0.10;;;;;;;10.74;66.16;99198.70;89238;280;135715;-74
2023/10/08 03:35:55;;;;;;;1.70;0.60;;;;;;;10.61;66.66;99183.16;89385;279;24035;-74
2023/10/08 03:38:18;;;;;;;2.10;0.20;;;;;;;10.64;67.44;99193.13;91190;282;136153;-72
2023/10/08 03:40:25;;;;;;;0.10;0.10;;;;;;;10.62;67.73;99191.48;91113;282;137297;-73
2023/10/08 03:42:34;;;;;;;0.20;0.10;;;;;;;10.60;67.49;99192.08;90076;282;23756;-72
2023/10/08 03:44:37;;;;;;;2.00;0.10;;;;;;;10.60;67.52;99190.77;88634;282;136888;-74
2023/10/08 03:46:43;;;;;;;0.40;0.10;;;;;;;10.55;67.48;99190.20;88798;282;24211;-73
2023/10/08 03:48:45;;;;;;;2.90;0.60;;;;;;;10.50;67.95;99188.83;88742;275;135869;-76
2023/10/08 03:50:56;;;;;;;1.30;0.10;;;;;;;10.47;68.19;99196.11;88797;274;22526;-74
2023/10/08 03:52:58;;;;;;;0.30;0.20;;;;;;;10.40;68.24;99188.33;88702;277;136227;-75
2023/10/08 03:55:35;;;;;;;1.20;0.20;;;;;;;10.35;68.36;99192.79;88839;274;22531;-73
2023/10/08 03:57:41;;;;;;;0.80;0.10;;;;;;;10.30;68.85;99195.59;88628;281;135997;-75
2023/10/08 03:59:43;;;;;;;1.40;0.10;;;;;;;10.26;69.33;99203.38;88933;279;22518;-75
2023/10/08 04:01:46;;;;;;;0.70;0.10;;;;;;;10.21;69.69;99204.77;88804;278;135843;-73
2023/10/08 04:08:19;;;;;;;0.60;0.20;;;;;;;10.12;70.73;99208.75;88417;276;136298;-71
2023/10/08 04:12:44;;;;;;;0.70;0.10;;;;;;;10.07;70.52;99212.55;88198;278;136026;-69
2023/10/08 04:14:46;;;;;;;1.70;0.10;;;;;;;10.04;70.27;99209.97;88487;275;22515;-72
2023/10/08 04:16:51;;;;;;;0.70;0.10;;;;;;;10.02;70.19;99218.13;88754;276;137279;-74
2023/10/08 04:18:55;;;;;;;1.20;0.20;;;;;;;10.00;69.92;99218.21;88709;276;22575;-73
2023/10/08 04:21:12;;;;;;;2.80;0.10;;;;;;;9.94;69.43;99224.55;88623;279;136097;-73
2023/10/08 04:23:18;;;;;;;0.80;0.00;;;;;;;9.96;68.33;99230.94;88948;279;22472;-70
2023/10/08 04:25:20;;;;;;;3.00;0.00;;;;;;;9.93;66.03;99228.13;88568;282;136316;-74
2023/10/08 04:27:22;;;;;;;0.50;0.10;;;;;;;9.92;65.62;99220.17;88660;282;25147;-72
2023/10/08 04:29:26;;;;;;;0.30;0.10;;;;;;;9.90;64.97;99233.83;88796;275;135920;-74
2023/10/08 04:31:38;;;;;;;0.60;0.10;;;;;;;9.91;64.91;99245.30;88688;276;22459;-75
2023/10/08 04:33:46;;;;;;;2.20;0.00;;;;;;;9.90;65.00;99246.52;88688;277;135496;-75
2023/10/08 04:35:55;;;;;;;1.50;0.20;;;;;;;9.89;64.73;99248.25;88280;284;504799;-75
2023/10/08 04:37:58;;;;;;;1.70;0.80;;;;;;;9.88;65.30;99261.67;88893;282;136049;-75
2023/10/08 04:40:00;;;;;;;0.50;0.00;;;;;;;9.88;65.10;99263.92;88487;276;25170;-74
2023/10/08 04:42:09;;;;;;;1.30;0.10;;;;;;;9.88;65.04;99264.13;88377;276;136549;-73
2023/10/08 04:44:15;;;;;;;0.30;0.10;;;;;;;9.85;65.94;99267.79;88414;282;139061;-74
2023/10/08 04:46:33;;;;;;;0.40;0.10;;;;;;;9.83;66.15;99258.63;88722;275;23700;-73
2023/10/08 04:48:36;;;;;;;1.90;0.20;;;;;;;9.81;66.86;99256.00;88619;275;136176;-72
2023/10/08 04:50:44;;;;;;;0.40;0.10;;;;;;;9.81;66.97;99259.92;88373;280;26267;-74
2023/10/08 04:52:58;;;;;;;0.60;0.10;;;;;;;9.82;67.43;99260.22;88527;282;137006;-73
2023/10/08 04:55:12;;;;;;;1.90;0.10;;;;;;;9.83;67.41;99268.82;88728;282;24054;-73
2023/10/08 04:57:17;;;;;;;1.90;0.10;;;;;;;9.80;67.74;99274.44;88674;282;137021;-74
2023/10/08 04:59:22;;;;;;;3.30;0.10;;;;;;;9.81;68.38;99270.61;88727;282;25141;-72
2023/10/08 05:01:38;;;;;;;0.60;0.20;;;;;;;9.82;68.20;99271.40;88547;279;136094;-73
2023/10/08 05:03:54;;;;;;;0.90;0.20;;;;;;;9.84;68.27;99259.89;88675;276;22535;-73
2023/10/08 05:06:09;;;;;;;3.50;0.10;;;;;;;9.87;67.80;99265.94;88584;276;135433;-72
2023/10/08 05:08:24;;;;;;;3.20;0.20;;;;;;;9.88;66.96;99270.23;88676;279;136072;-76
2023/10/08 05:14:38;;;;;;;1.30;0.20;;;;;;;9.88;66.04;99264.46;88858;275;22645;-73
2023/10/08 05:17:00;;;;;;;1.70;0.20;;;;;;;9.89;65.85;99269.06;88734;282;136573;-76
2023/10/08 05:21:28;;;;;;;0.70;0.10;;;;;;;9.93;66.13;99280.01;88367;277;136346;-70
2023/10/08 05:25:53;;;;;;;2.70;0.10;;;;;;;9.92;65.59;99293.39;90641;282;136624;-71
2023/10/08 05:30:15;;;;;;;0.80;0.20;;;;;;;9.98;66.15;99319.11;89125;275;136284;-74
2023/10/08 05:32:37;;;;;;;0.60;0.10;;;;;;;10.02;65.61;99318.02;88605;279;137770;-76
2023/10/08 05:34:50;;;;;;;0.60;0.10;;;;;;;9.97;64.77;99301.98;88702;276;25208;-73
2023/10/08 05:39:29;;;;;;;0.60;0.10;;;;;;;10.09;63.50;99310.09;88574;276;22539;-73
2023/10/08 05:41:39;;;;;;;6.20;0.10;;;;;;;10.12;62.42;99308.83;88725;277;136158;-73
2023/10/08 05:45:53;;;;;;;2.00;0.10;;;;;;;10.15;62.45;99310.89;88287;274;137630;-71
2023/10/08 05:48:13;;;;;;;2.20;0.10;;;;;;;10.11;62.61;99318.73;88699;279;22652;-74
2023/10/08 05:52:40;;;;;;;1.30;0.20;;;;;;;10.03;62.45;99327.28;88724;282;137016;-74
2023/10/08 05:55:15;;;;;;;1.50;0.10;;;;;;;10.03;61.89;99335.05;88874;275;25236;-74
2023/10/08 05:57:35;;;;;;;2.60;0.10;;;;;;;10.03;62.49;99324.20;88306;279;135980;-73
2023/10/08 06:04:53;;;;;;;3.50;0.10;;;;;;;9.96;64.25;99343.68;88728;277;136683;-76
2023/10/08 06:07:12;;;;;;;2.70;0.10;;;;;;;9.96;64.11;99343.15;88679;283;24211;-72
2023/10/08 06:13:55;;;;;;;1.60;0.00;;;;;;;9.93;63.59;99348.68;88683;275;135861;-71
2023/10/08 06:18:04;;;;;;;0.20;0.10;;;;;;;9.94;63.43;99342.51;88200;280;136694;-72
2023/10/08 06:20:10;;;;;;;0.40;0.10;;;;;;;9.92;63.61;99337.17;88815;276;137303;-73
2023/10/08 06:22:12;;;;;;;1.20;0.10;;;;;;;9.91;63.35;99340.86;89595;277;22531;-74
2023/10/08 06:24:16;;;;;;;2.40;0.20;;;;;;;9.89;63.32;99350.95;88362;276;136272;-72
2023/10/08 06:26:21;;;;;;;1.80;0.10;;;;;;;9.86;63.34;99356.76;88842;282;25236;-73
2023/10/08 06:28:25;;;;;;;1.10;0.20;;;;;;;9.83;63.31;99361.04;88347;274;137074;-74
2023/10/08 06:30:34;;;;;;;2.40;0.10;;;;;;;9.81;63.52;99361.60;88464;279;22715;-74
2023/10/08 06:32:37;;;;;;;2.40;0.20;;;;;;;9.78;64.33;99372.23;88268;275;136198;-71
2023/10/08 06:34:40;;;;;;;2.00;0.50;;;;;;;9.75;64.86;99361.32;88305;276;23125;-75
2023/10/08 06:36:42;;;;;;;3.20;0.10;;;;;;;9.75;64.75;99365.78;88415;276;137183;-75
2023/10/08 06:38:48;;;;;;;0.80;0.10;;;;;;;9.74;65.13;99358.02;88341;283;22545;-73
2023/10/08 06:40:52;;;;;;;1.00;0.10;;;;;;;9.72;65.29;99357.03;88299;283;135557;-74
2023/10/08 06:42:56;;;;;;;0.30;0.10;;;;;;;9.69;65.73;99352.20;88766;275;22864;-73
2023/10/08 06:44:58;;;;;;;2.30;0.20;;;;;;;9.68;65.35;99361.50;88415;279;136871;-73
2023/10/08 06:47:00;;;;;;;1.40;0.20;;;;;;;9.65;65.96;99381.40;88360;276;22530;-74
2023/10/08 06:49:03;;;;;;;1.80;0.30;;;;;;;9.61;66.21;99395.36;88383;276;135784;-72
2023/10/08 06:51:12;;;;;;;1.20;0.00;;;;;;;9.58;66.20;99388.67;88339;279;22522;-75
2023/10/08 06:53:18;;;;;;;0.90;0.10;;;;;;;9.58;66.38;99386.63;88327;282;137449;-74
2023/10/08 06:55:24;;;;;;;8.30;0.10;;;;;;;9.56;66.15;99392.65;88645;275;22532;-75
2023/10/08 06:57:26;;;;;;;0.60;0.10;;;;;;;9.55;66.27;99395.20;88576;282;138060;-73
2023/10/08 06:59:31;;;;;;;1.10;0.30;;;;;;;9.57;66.06;99395.59;88699;283;22550;-74
2023/10/08 07:01:39;;;;;;;2.20;0.10;;;;;;;9.56;66.43;99396.38;88780;275;137481;-75
2023/10/08 07:03:40;;;;;;;0.20;0.10;;;;;;;9.55;66.64;99400.52;88478;279;22707;-75
2023/10/08 07:06:00;;;;;;;2.90;0.10;;;;;;;9.57;67.18;99392.85;88205;282;135977;-73
2023/10/08 07:08:06;;;;;;;1.40;0.40;;;;;;;9.59;67.21;99403.05;88810;283;136068;-73
2023/10/08 07:10:10;;;;;;;1.40;0.20;;;;;;;9.62;66.89;99403.83;88783;276;24049;-73
2023/10/08 07:12:14;;;;;;;0.80;0.20;;;;;;;9.63;66.79;99412.52;88582;280;136818;-74
2023/10/08 07:14:16;;;;;;;0.90;0.10;;;;;;;9.62;66.76;99403.63;88851;275;22530;-73
2023/10/08 07:16:18;;;;;;;0.70;0.10;;;;;;;9.55;66.95;99397.12;88289;274;135963;-68
2023/10/08 07:18:27;;;;;;;2.00;0.20;;;;;;;9.62;67.41;99409.39;88609;283;22530;-71
2023/10/08 07:20:35;;;;;;;0.80;0.10;;;;;;;9.63;67.33;99406.33;88508;282;136544;-76
2023/10/08 07:22:38;;;;;;;0.30;0.20;;;;;;;9.63;67.07;99407.48;88934;282;24103;-76
2023/10/08 07:24:40;;;;;;;0.20;0.10;;;;;;;9.65;67.16;99402.40;88636;283;135739;-73
2023/10/08 07:26:46;;;;;;;0.90;0.10;;;;;;;9.67;67.07;99398.70;88289;276;22541;-71
2023/10/08 07:28:51;;;;;;;0.50;0.30;;;;;;;9.64;67.16;99392.54;89127;274;136028;-75
2023/10/08 07:30:53;;;;;;;0.90;0.20;;;;;;;9.61;67.60;99398.39;91133;282;22490;-72
2023/10/08 07:32:55;;;;;;;0.90;0.30;;;;;;;9.59;67.76;99408.90;89219;282;136951;-74
2023/10/08 07:35:24;;;;;;;0.90;0.30;;;;;;;9.59;67.75;99411.27;88479;280;25169;-74
2023/10/08 07:37:21;;;;;;;3.70;0.10;;;;;;;9.54;66.88;99414.59;88064;282;135901;-71
2023/10/08 07:41:34;;;;;;;2.70;0.30;;;;;;;9.52;67.63;99421.91;88109;283;137116;-75
2023/10/08 07:43:35;;;;;;;0.40;0.10;;;;;;;9.54;67.69;99410.98;88862;276;23872;-72
2023/10/08 07:45:37;;;;;;;0.90;0.10;;;;;;;9.58;67.70;99408.02;87961;280;135987;-74
2023/10/08 07:47:39;;;;;;;2.80;0.10;;;;;;;9.61;67.72;99420.53;88268;280;22530;-71
2023/10/08 07:49:44;;;;;;;1.20;0.10;;;;;;;9.66;67.38;99427.20;88098;276;135580;-74
2023/10/08 07:51:53;;;;;;;0.80;0.10;;;;;;;9.69;67.63;99419.09;88318;284;22641;-74
2023/10/08 07:53:57;;;;;;;1.20;0.10;;;;;;;9.71;67.73;99428.67;88235;279;135557;-73
2023/10/08 07:56:00;;;;;;;;;;;;;;;9.73;68.05;99422.61;88163;276;25223;-71
2023/10/08 07:58:03;;;;;;;6.20;0.30;;;;;;;9.77;68.07;99429.05;88342;279;121831;-71
2023/10/08 08:00:22;;;;;;;0.40;0.10;;;;;;;9.81;67.96;99422.83;89124;276;137456;-72
2023/10/08 08:02:26;;;;;;;0.10;0.10;;;;;;;9.85;68.46;99420.19;88188;276;22534;-74
2023/10/08 08:04:33;;;;;;;0.80;0.10;;;;;;;9.89;67.52;99420.84;88320;276;136081;-74
2023/10/08 08:06:36;;;;;;;2.50;0.40;;;;;;;9.96;66.95;99422.16;88261;274;24150;-72
2023/10/08 08:08:39;;;;;;;1.20;0.60;;;;;;;10.00;67.10;99427.02;88703;275;135871;-76
2023/10/08 08:10:43;;;;;;;3.90;2.00;;;;;;;10.07;67.07;99420.21;88821;276;25193;-73
2023/10/08 08:12:45;;;;;;;2.50;2.30;;;;;;;10.16;67.43;99419.86;88663;279;137175;-73
2023/10/08 08:14:48;;;;;;;3.60;1.30;;;;;;;10.25;66.82;99418.66;88840;274;23564;-74
2023/10/08 08:16:50;;;;;;;0.70;0.30;;;;;;;10.33;66.84;99412.16;88652;274;137280;-75
2023/10/08 08:18:57;;;;;;;0.20;0.20;;;;;;;10.42;66.02;99411.35;88891;275;24214;-75
2023/10/08 08:21:01;;;;;;;0.60;0.10;;;;;;;10.46;64.69;99414.29;88646;279;136813;-75
2023/10/08 08:23:07;;;;;;;0.50;0.10;;;;;;;10.44;64.63;99415.48;88669;275;22534;-75
2023/10/08 08:25:15;;;;;;;1.20;0.30;;;;;;;10.41;64.55;99419.80;88157;280;135729;-73
2023/10/08 08:27:23;;;;;;;1.80;0.90;;;;;;;10.39;64.07;99406.94;88812;275;22544;-74
2023/10/08 08:29:26;;;;;;;4.30;0.10;;;;;;;10.34;64.53;99416.54;88334;279;137121;-71
2023/10/08 08:31:35;;;;;;;0.20;0.10;;;;;;;10.39;64.23;99425.66;88573;282;23714;-72
2023/10/08 08:33:52;;;;;;;1.20;0.00;;;;;;;10.42;64.47;99424.38;88205;282;136125;-73
2023/10/08 08:37:35;;;;;;;0.20;0.10;;;;;;;10.30;65.52;99419.97;87176;304;602144;-73
2023/10/08 08:39:38;;;;;;;0.70;0.30;;;;;;;10.37;65.65;99417.95;87867;290;25296;-72
2023/10/08 08:41:40;;;;;;;1.20;0.20;;;;;;;10.48;65.65;99415.76;88261;287;135282;-75
2023/10/08 08:43:44;;;;;;;0.50;0.00;;;;;;;10.62;65.57;99419.92;88148;287;25127;-73
2023/10/08 08:45:49;;;;;;;0.30;0.20;;;;;;;10.69;64.99;99412.02;88205;278;135450;-73
2023/10/08 08:47:52;;;;;;;0.50;0.10;;;;;;;10.90;64.75;99424.60;88464;282;25083;-75
2023/10/08 08:49:57;;;;;;;1.60;0.10;;;;;;;11.03;64.65;99424.73;88260;279;135120;-73
2023/10/08 08:52:00;;;;;;;1.10;0.10;;;;;;;11.12;63.24;99416.95;87930;277;617523;-72
2023/10/08 08:54:06;;;;;;;0.80;0.10;;;;;;;11.16;62.13;99418.84;88230;281;135098;-75
2023/10/08 08:56:09;;;;;;;0.30;0.10;;;;;;;11.19;61.19;99416.73;88382;279;136274;-74
2023/10/08 08:58:11;;;;;;;0.70;0.10;;;;;;;11.21;60.70;99420.70;88356;284;23864;-75
2023/10/08 09:00:16;;;;;;;1.00;0.60;;;;;;;11.25;61.03;99418.98;88188;280;136972;-73
2023/10/08 09:02:18;;;;;;;0.70;0.10;;;;;;;11.33;60.80;99413.69;88537;281;25321;-74
2023/10/08 09:04:32;;;;;;;3.10;0.10;;;;;;;11.36;57.58;99406.92;88444;275;136587;-74
2023/10/08 09:06:38;;;;;;;0.30;0.10;;;;;;;11.35;56.26;99414.77;88658;275;25105;-76
2023/10/08 09:08:45;;;;;;;0.70;0.00;;;;;;;11.32;55.77;99411.15;88296;283;136877;-75
2023/10/08 09:10:51;;;;;;;2.80;0.60;;;;;;;11.27;55.52;99413.08;88600;279;22527;-75
2023/10/08 09:12:55;;;;;;;2.70;0.30;;;;;;;11.23;56.06;99417.04;88498;280;136848;-75
2023/10/08 09:15:02;;;;;;;0.70;0.10;;;;;;;11.21;55.84;99417.58;88681;279;22780;-72
2023/10/08 09:17:05;;;;;;;1.30;0.10;;;;;;;11.20;54.80;99420.73;88283;276;135857;-76
2023/10/08 09:19:12;;;;;;;0.40;0.10;;;;;;;11.21;54.98;99422.42;88569;283;22604;-75
2023/10/08 09:21:18;;;;;;;2.20;0.20;;;;;;;11.26;54.90;99411.02;88537;276;136734;-75
2023/10/08 09:23:23;;;;;;;1.00;0.10;;;;;;;11.32;54.18;99419.80;88774;276;22512;-74
2023/10/08 09:25:26;;;;;;;2.20;0.10;;;;;;;11.36;52.54;99425.98;88304;280;135652;-76
2023/10/08 09:27:30;;;;;;;0.20;0.10;;;;;;;11.35;52.28;99422.33;88335;277;22534;-76
2023/10/08 09:29:39;;;;;;;0.60;0.10;;;;;;;11.33;52.58;99423.98;88562;276;135716;-75
2023/10/08 09:31:48;;;;;;;1.90;0.10;;;;;;;11.36;52.47;99420.84;88672;276;22532;-76
2023/10/08 09:33:54;;;;;;;4.10;0.10;;;;;;;11.37;51.59;99415.38;88145;276;136461;-75
2023/10/08 09:36:02;;;;;;;1.20;0.10;;;;;;;11.38;49.52;99402.33;88393;275;22524;-74
2023/10/08 09:38:10;;;;;;;3.40;0.50;;;;;;;11.40;49.21;99407.48;88430;275;22531;-76
2023/10/08 09:40:20;;;;;;;1.10;0.10;;;;;;;11.44;49.40;99413.11;88370;275;136770;-74
2023/10/08 09:42:24;;;;;;;0.80;0.10;;;;;;;11.53;49.08;99396.84;88363;283;22613;-73
2023/10/08 09:44:26;;;;;;;0.20;0.00;;;;;;;11.57;48.23;99400.87;88705;283;135490;-75
2023/10/08 09:46:36;;;;;;;0.20;0.10;;;;;;;11.56;47.90;99403.09;88288;275;22527;-74
2023/10/08 09:48:41;;;;;;;2.10;0.40;;;;;;;11.51;47.34;99400.79;88556;283;135549;-75
2023/10/08 09:50:47;;;;;;;2.00;0.10;;;;;;;11.47;47.57;99408.41;88648;278;25546;-75
2023/10/08 09:52:53;;;;;;;1.30;0.30;;;;;;;11.47;48.07;99404.23;88765;280;136010;-76
2023/10/08 09:55:10;;;;;;;12.10;0.50;;;;;;;11.42;45.82;99396.87;88830;276;23240;-76
2023/10/08 09:57:12;;;;;;;0.30;0.10;;;;;;;11.39;45.13;99401.57;88686;284;136754;-74
2023/10/08 09:59:15;;;;;;;0.70;0.10;;;;;;;11.35;44.43;99399.80;88497;276;22889;-73
2023/10/08 10:01:19;;;;;;;0.60;0.10;;;;;;;11.34;44.76;99407.69;88331;277;136603;-75
2023/10/08 10:03:23;;;;;;;1.00;0.00;;;;;;;11.29;44.54;99414.20;89373;277;25047;-73
2023/10/08 10:05:30;;;;;;;1.60;0.50;;;;;;;11.23;44.30;99410.10;89284;283;136557;-73
2023/10/08 10:07:32;;;;;;;2.40;0.10;;;;;;;11.20;44.56;99419.77;89540;283;25083;-73
2023/10/08 10:09:36;;;;;;;1.70;0.10;;;;;;;11.20;44.91;99418.66;88842;283;135758;-73
2023/10/08 10:11:38;;;;;;;1.70;0.10;;;;;;;11.26;44.34;99417.66;88823;279;25366;-71
2023/10/08 10:13:48;;;;;;;1.30;0.10;;;;;;;11.32;43.33;99417.13;88317;276;135388;-71
2023/10/08 10:15:51;;;;;;;1.20;0.20;;;;;;;11.34;40.99;99405.84;91122;276;23946;-73
2023/10/08 10:17:56;;;;;;;2.00;0.20;;;;;;;11.34;41.08;99406.63;90386;282;135171;-72
2023/10/08 10:20:01;;;;;;;0.70;0.10;;;;;;;11.34;40.47;99409.29;88631;282;22537;-73
2023/10/08 10:22:03;;;;;;;3.20;0.10;;;;;;;11.34;39.81;99400.48;88585;275;25846;-74
2023/10/08 10:24:22;;;;;;;1.20;0.20;;;;;;;11.36;38.99;99418.51;88327;275;135948;-73
2023/10/08 10:26:47;;;;;;;0.30;0.10;;;;;;;11.36;38.46;99417.69;89739;277;23708;-76
2023/10/08 10:29:19;;;;;;;0.70;0.20;;;;;;;11.37;38.91;99423.02;88408;283;135443;-76
2023/10/08 10:31:23;;;;;;;0.20;0.10;;;;;;;11.41;39.48;99410.55;88568;282;22939;-70
2023/10/08 10:33:33;;;;;;;2.10;0.20;;;;;;;11.46;39.44;99405.59;88232;280;137036;-69
2023/10/08 10:35:40;;;;;;;0.70;0.10;;;;;;;11.49;38.97;99404.91;88779;284;22537;-76
2023/10/08 10:37:42;;;;;;;0.10;0.10;;;;;;;11.54;39.09;99413.79;88289;280;135981;-76
2023/10/08 10:39:52;;;;;;;0.20;0.00;;;;;;;11.56;38.72;99411.34;88251;276;25096;-77
2023/10/08 10:41:57;;;;;;;1.10;0.10;;;;;;;11.54;37.73;99409.06;88036;284;135391;-75
2023/10/08 10:43:59;;;;;;;1.20;0.10;;;;;;;11.51;37.93;99408.85;88484;284;23843;-73